createdAt,value
2022-08-30T00:00:44.107Z,17.85
2022-08-30T00:03:19.096Z,17.78
2022-08-30T00:05:52.507Z,17.87
2022-08-30T00:08:29.783Z,17.81
2022-08-30T00:11:04.917Z,17.82
2022-08-30T00:13:38.583Z,17.77
2022-08-30T00:16:12.385Z,17.70
2022-08-30T00:18:47.743Z,17.69
2022-08-30T00:21:21.392Z,17.59
2022-08-30T00:23:54.759Z,17.46
2022-08-30T00:26:27.869Z,17.39
2022-08-30T00:29:00.935Z,17.36
2022-08-30T00:31:34.121Z,17.39
2022-08-30T00:34:08.634Z,17.34
2022-08-30T00:36:41.686Z,17.31
2022-08-30T00:39:14.794Z,17.27
2022-08-30T00:41:48.649Z,17.25
2022-08-30T00:44:21.774Z,17.25
2022-08-30T00:46:54.862Z,17.24
2022-08-30T00:49:30.653Z,17.24
2022-08-30T00:52:06.562Z,17.19
2022-08-30T00:54:43.337Z,17.18
2022-08-30T00:57:16.708Z,17.16
2022-08-30T00:59:51.318Z,17.12
2022-08-30T01:02:24.737Z,17.12
2022-08-30T01:04:59.733Z,17.13
2022-08-30T01:07:34.745Z,17.13
2022-08-30T01:10:11.462Z,17.11
2022-08-30T01:12:46.571Z,17.13
2022-08-30T01:15:19.901Z,17.13
2022-08-30T01:17:54.369Z,17.03
2022-08-30T01:20:37.285Z,17.08
2022-08-30T01:23:16.706Z,17.07
2022-08-30T01:25:51.747Z,17.07
2022-08-30T01:28:28.533Z,17.07
2022-08-30T01:31:02.677Z,17.03
2022-08-30T01:33:38.188Z,17.02
2022-08-30T01:36:15.438Z,16.97
2022-08-30T01:38:54.280Z,16.90
2022-08-30T01:41:31.831Z,16.80
2022-08-30T01:44:10.221Z,16.74
2022-08-30T01:46:47.783Z,16.69
2022-08-30T01:49:27.718Z,16.67
2022-08-30T01:52:01.582Z,16.66
2022-08-30T01:54:41.149Z,16.67
2022-08-30T01:57:19.343Z,16.64
2022-08-30T01:59:52.439Z,16.63
2022-08-30T02:02:29.874Z,16.62
2022-08-30T02:05:03.110Z,16.65
2022-08-30T02:07:36.261Z,16.65
2022-08-30T02:10:11.561Z,16.60
2022-08-30T02:12:44.666Z,16.63
2022-08-30T02:15:18.369Z,16.56
2022-08-30T02:17:51.475Z,16.46
2022-08-30T02:20:24.835Z,16.48
2022-08-30T02:23:01.179Z,16.48
2022-08-30T02:25:36.137Z,16.44
2022-08-30T02:28:10.003Z,16.46
2022-08-30T02:30:43.288Z,16.46
2022-08-30T02:33:17.129Z,16.49
2022-08-30T02:35:52.696Z,16.47
2022-08-30T02:38:28.396Z,16.47
2022-08-30T02:41:04.625Z,16.44
2022-08-30T02:43:39.181Z,16.28
2022-08-30T02:46:13.556Z,16.29
2022-08-30T02:48:48.425Z,16.31
2022-08-30T02:51:23.443Z,16.25
2022-08-30T02:53:56.593Z,16.27
2022-08-30T02:56:31.145Z,16.35
2022-08-30T02:59:04.413Z,16.28
2022-08-30T03:01:39.123Z,16.31
2022-08-30T03:04:13.060Z,16.31
2022-08-30T03:06:46.138Z,16.30
2022-08-30T03:09:19.280Z,16.30
2022-08-30T03:11:53.763Z,16.25
2022-08-30T03:14:28.119Z,16.23
2022-08-30T03:17:01.208Z,16.20
2022-08-30T03:19:36.287Z,16.17
2022-08-30T03:22:09.435Z,16.14
2022-08-30T03:24:42.725Z,16.16
2022-08-30T03:27:17.151Z,16.14
2022-08-30T03:29:50.272Z,16.18
2022-08-30T03:32:24.489Z,16.16
2022-08-30T03:34:57.586Z,16.08
2022-08-30T03:37:30.650Z,16.02
2022-08-30T03:40:05.050Z,16.00
2022-08-30T03:42:43.464Z,15.92
2022-08-30T03:45:19.650Z,15.90
2022-08-30T03:47:52.748Z,15.85
2022-08-30T03:50:26.059Z,15.83
2022-08-30T03:53:01.957Z,15.87
2022-08-30T03:55:35.129Z,15.85
2022-08-30T03:58:09.897Z,15.88
2022-08-30T04:00:43.226Z,15.83
2022-08-30T04:03:16.692Z,15.76
2022-08-30T04:05:49.888Z,15.75
2022-08-30T04:08:23.507Z,15.71
2022-08-30T04:10:56.775Z,15.69
2022-08-30T04:13:31.458Z,15.69
2022-08-30T04:16:05.072Z,15.70
2022-08-30T04:18:38.710Z,15.68
2022-08-30T04:21:14.145Z,15.67
2022-08-30T04:23:47.908Z,15.67
2022-08-30T04:26:21.117Z,15.63
2022-08-30T04:28:56.814Z,15.56
2022-08-30T04:31:30.298Z,15.51
2022-08-30T04:34:03.599Z,15.52
2022-08-30T04:36:36.699Z,15.55
2022-08-30T04:39:09.889Z,15.58
2022-08-30T04:41:42.990Z,15.63
2022-08-30T04:44:19.506Z,15.63
2022-08-30T04:46:53.093Z,15.63
2022-08-30T04:49:26.221Z,15.61
2022-08-30T04:51:59.332Z,15.62
2022-08-30T04:54:32.820Z,15.60
2022-08-30T04:57:07.383Z,15.65
2022-08-30T04:59:41.857Z,15.62
2022-08-30T05:02:15.124Z,15.68
2022-08-30T05:05:02.232Z,15.77
2022-08-30T05:07:36.026Z,15.89
2022-08-30T05:10:11.593Z,15.88
2022-08-30T05:12:44.863Z,15.89
2022-08-30T05:15:19.534Z,15.96
2022-08-30T05:17:52.653Z,16.04
2022-08-30T05:20:25.934Z,16.09
2022-08-30T05:22:59.004Z,16.21
2022-08-30T05:25:38.086Z,16.36
2022-08-30T05:28:11.203Z,16.51
2022-08-30T05:30:45.638Z,16.60
2022-08-30T05:33:18.718Z,16.82
2022-08-30T05:35:51.826Z,16.99
2022-08-30T05:38:24.923Z,17.25
2022-08-30T05:40:58.001Z,17.49
2022-08-30T05:43:32.263Z,17.78
2022-08-30T05:46:10.312Z,18.12
2022-08-30T05:48:43.559Z,18.57
2022-08-30T05:51:19.699Z,19.00
2022-08-30T05:53:54.516Z,19.38
2022-08-30T05:56:31.762Z,19.76
2022-08-30T05:59:07.270Z,20.27
2022-08-30T06:01:44.132Z,20.64
2022-08-30T06:04:17.807Z,20.86
2022-08-30T06:06:51.360Z,21.19
2022-08-30T06:09:24.434Z,21.49
2022-08-30T06:11:57.621Z,21.47
2022-08-30T06:14:30.710Z,21.84
2022-08-30T06:17:05.226Z,21.94
2022-08-30T06:19:38.302Z,22.22
2022-08-30T06:22:14.367Z,22.28
2022-08-30T06:24:57.324Z,22.58
2022-08-30T06:27:31.215Z,22.73
2022-08-30T06:30:08.145Z,22.90
2022-08-30T06:32:42.745Z,22.96
2022-08-30T06:35:15.836Z,23.24
2022-08-30T06:37:49.005Z,23.47
2022-08-30T06:40:22.950Z,23.76
2022-08-30T06:42:56.200Z,23.66
2022-08-30T06:45:30.987Z,23.73
2022-08-30T06:48:05.694Z,24.10
2022-08-30T06:50:39.001Z,24.16
2022-08-30T06:53:12.146Z,24.43
2022-08-30T06:55:45.296Z,24.61
2022-08-30T06:58:18.500Z,24.79
2022-08-30T07:00:51.971Z,24.71
2022-08-30T07:03:27.334Z,24.50
2022-08-30T07:06:00.422Z,24.85
2022-08-30T07:08:33.656Z,24.88
2022-08-30T07:11:07.654Z,25.00
2022-08-30T07:13:40.845Z,25.25
2022-08-30T07:16:15.986Z,25.72
2022-08-30T07:18:54.846Z,25.65
2022-08-30T07:21:34.640Z,25.40
2022-08-30T07:24:10.156Z,24.99
2022-08-30T07:26:46.770Z,25.95
2022-08-30T07:29:21.155Z,26.02
2022-08-30T07:31:54.361Z,26.40
2022-08-30T07:34:28.810Z,26.14
2022-08-30T07:37:01.932Z,25.62
2022-08-30T07:39:41.718Z,25.37
2022-08-30T07:42:19.484Z,25.70
2022-08-30T07:44:56.494Z,26.11
2022-08-30T07:47:29.972Z,26.31
2022-08-30T07:50:05.868Z,26.33
2022-08-30T07:52:39.142Z,26.09
2022-08-30T07:55:12.304Z,26.21
2022-08-30T07:57:45.457Z,26.15
2022-08-30T08:00:18.802Z,26.17
2022-08-30T08:02:51.963Z,26.28
2022-08-30T08:05:26.523Z,26.61
2022-08-30T08:07:59.599Z,26.79
2022-08-30T08:10:33.151Z,27.07
2022-08-30T08:13:08.288Z,27.28
2022-08-30T08:15:42.474Z,27.54
2022-08-30T08:18:15.765Z,27.47
2022-08-30T08:20:50.312Z,27.67
2022-08-30T08:23:27.285Z,27.58
2022-08-30T08:26:00.550Z,27.77
2022-08-30T08:28:33.854Z,27.88
2022-08-30T08:31:16.841Z,27.69
2022-08-30T08:33:50.209Z,27.83
2022-08-30T08:36:25.302Z,28.11
2022-08-30T08:38:58.722Z,28.30
2022-08-30T08:41:51.991Z,28.52
2022-08-30T08:44:42.334Z,28.45
2022-08-30T08:47:19.694Z,28.77
2022-08-30T08:49:57.551Z,29.18
2022-08-30T08:53:04.401Z,29.17
2022-08-30T08:55:44.205Z,29.42
2022-08-30T08:58:24.708Z,29.60
2022-08-30T09:00:59.541Z,29.76
2022-08-30T09:03:32.684Z,29.87
2022-08-30T09:06:35.097Z,29.58
2022-08-30T09:09:09.945Z,29.90
2022-08-30T09:11:44.207Z,29.72
2022-08-30T09:14:24.276Z,29.88
2022-08-30T09:17:07.181Z,29.90
2022-08-30T09:19:45.202Z,29.95
2022-08-30T09:22:28.203Z,29.48
2022-08-30T09:25:08.786Z,29.60
2022-08-30T09:27:46.358Z,29.55
2022-08-30T09:30:24.479Z,29.36
2022-08-30T09:33:02.336Z,29.49
2022-08-30T09:35:41.059Z,29.81
2022-08-30T09:38:22.464Z,29.71
2022-08-30T09:41:01.182Z,29.47
2022-08-30T09:43:37.622Z,29.58
2022-08-30T09:46:16.258Z,29.49
2022-08-30T09:48:51.424Z,29.47
2022-08-30T09:51:43.676Z,29.24
2022-08-30T09:54:25.540Z,29.39
2022-08-30T09:57:12.851Z,28.88
2022-08-30T09:59:54.138Z,29.19
2022-08-30T10:03:06.124Z,29.46
2022-08-30T10:05:58.350Z,29.27
2022-08-30T10:08:47.463Z,29.42
2022-08-30T10:11:33.680Z,29.61
2022-08-30T10:14:41.387Z,29.73
2022-08-30T10:17:29.543Z,29.69
2022-08-30T10:20:21.834Z,29.46
2022-08-30T10:23:06.152Z,29.66
2022-08-30T10:25:49.189Z,29.81
2022-08-30T10:28:34.367Z,29.88
2022-08-30T10:31:34.160Z,29.82
2022-08-30T10:34:16.974Z,29.60
2022-08-30T10:36:59.746Z,29.51
2022-08-30T10:39:41.093Z,29.41
2022-08-30T10:42:22.394Z,29.46
2022-08-30T10:45:07.167Z,29.61
2022-08-30T10:47:49.587Z,28.99
2022-08-30T10:50:33.915Z,29.21
2022-08-30T10:53:16.297Z,29.31
2022-08-30T10:55:57.471Z,29.14
2022-08-30T10:58:33.605Z,29.14
2022-08-30T11:01:31.952Z,29.36
2022-08-30T11:04:34.666Z,29.14
2022-08-30T11:07:23.686Z,29.30
2022-08-30T11:10:42.472Z,29.31
2022-08-30T11:13:27.435Z,29.25
2022-08-30T11:16:07.406Z,29.34
2022-08-30T11:18:51.172Z,29.58
2022-08-30T11:21:36.791Z,29.58
2022-08-30T11:24:15.239Z,29.70
2022-08-30T11:27:03.434Z,29.54
2022-08-30T11:29:44.306Z,29.53
2022-08-30T11:32:58.644Z,29.54
2022-08-30T11:35:48.323Z,29.78
2022-08-30T11:39:03.734Z,29.93
2022-08-30T11:41:44.603Z,30.11
2022-08-30T11:44:34.478Z,30.11
2022-08-30T11:47:41.145Z,30.21
2022-08-30T11:50:21.748Z,30.26
2022-08-30T11:53:06.005Z,30.23
2022-08-30T11:55:58.081Z,30.12
2022-08-30T11:58:48.428Z,29.90
2022-08-30T12:01:51.190Z,29.83
2022-08-30T12:04:39.169Z,29.83
2022-08-30T12:07:14.835Z,29.64
2022-08-30T12:10:06.265Z,29.73
2022-08-30T12:12:55.656Z,29.74
2022-08-30T12:16:00.027Z,29.64
2022-08-30T12:18:45.779Z,29.70
2022-08-30T12:21:43.605Z,29.56
2022-08-30T12:24:27.343Z,29.37
2022-08-30T12:27:05.970Z,29.02
2022-08-30T12:29:53.732Z,28.95
2022-08-30T12:32:29.567Z,29.21
2022-08-30T12:35:07.946Z,29.45
2022-08-30T12:37:43.862Z,29.62
2022-08-30T12:40:25.264Z,29.56
2022-08-30T12:43:03.182Z,29.63
2022-08-30T12:45:50.990Z,29.76
2022-08-30T12:48:26.660Z,29.97
2022-08-30T12:51:03.231Z,29.87
2022-08-30T12:53:45.273Z,29.66
2022-08-30T12:56:47.118Z,29.92
2022-08-30T12:59:55.526Z,30.24
2022-08-30T13:02:52.452Z,30.46
2022-08-30T13:05:53.189Z,30.36
2022-08-30T13:08:37.151Z,30.65
2022-08-30T13:11:29.345Z,30.61
2022-08-30T13:14:30.029Z,30.52
2022-08-30T13:17:14.784Z,30.69
2022-08-30T13:20:01.719Z,30.66
2022-08-30T13:22:38.876Z,30.77
2022-08-30T13:25:14.534Z,30.72
2022-08-30T13:27:50.011Z,30.56
2022-08-30T13:30:25.257Z,30.68
2022-08-30T13:33:02.211Z,30.57
2022-08-30T13:35:38.854Z,30.44
2022-08-30T13:38:13.589Z,30.33
2022-08-30T13:40:48.292Z,30.38
2022-08-30T13:43:22.250Z,30.38
2022-08-30T13:45:57.667Z,30.45
2022-08-30T13:48:32.434Z,30.42
2022-08-30T13:51:09.589Z,30.55
2022-08-30T13:53:53.315Z,30.55
2022-08-30T13:56:32.011Z,30.49
2022-08-30T13:59:06.965Z,30.62
2022-08-30T14:04:38.570Z,30.39
2022-08-30T14:07:16.961Z,30.18
2022-08-30T14:10:30.444Z,30.14
2022-08-30T14:12:53.054Z,30.00
2022-08-30T14:15:28.169Z,29.89
2022-08-30T14:18:03.057Z,29.42
2022-08-30T14:20:38.548Z,29.42
2022-08-30T14:23:15.443Z,29.34
2022-08-30T14:25:50.823Z,29.15
2022-08-30T14:28:26.790Z,29.22
2022-08-30T14:31:01.731Z,29.08
2022-08-30T14:33:36.860Z,29.10
2022-08-30T14:36:15.500Z,29.11
2022-08-30T14:38:52.321Z,29.04
2022-08-30T14:41:27.305Z,29.02
2022-08-30T14:44:02.292Z,28.91
2022-08-30T14:46:37.583Z,28.93
2022-08-30T14:49:13.136Z,29.03
2022-08-30T14:51:48.826Z,29.09
2022-08-30T14:54:27.868Z,28.97
2022-08-30T14:57:03.404Z,28.96
2022-08-30T14:59:38.683Z,28.89
2022-08-30T15:02:14.285Z,29.01
2022-08-30T15:04:49.563Z,29.00
2022-08-30T15:07:24.607Z,29.02
2022-08-30T15:10:01.054Z,29.12
2022-08-30T15:12:36.870Z,28.97
2022-08-30T15:15:13.825Z,28.88
2022-08-30T15:17:48.812Z,28.88
2022-08-30T15:20:23.602Z,28.82
2022-08-30T15:22:58.747Z,28.84
2022-08-30T15:25:35.001Z,28.80
2022-08-30T15:28:15.525Z,28.83
2022-08-30T15:30:52.434Z,28.88
2022-08-30T15:33:27.747Z,28.54
2022-08-30T15:36:05.395Z,28.57
2022-08-30T15:38:40.386Z,28.70
2022-08-30T15:41:17.972Z,28.91
2022-08-30T15:43:53.399Z,28.98
2022-08-30T15:46:33.395Z,28.76
2022-08-30T15:49:10.439Z,28.85
2022-08-30T15:51:47.217Z,28.85
2022-08-30T15:54:25.189Z,28.80
2022-08-30T15:57:02.146Z,28.72
2022-08-30T15:59:40.538Z,28.90
2022-08-30T16:02:15.614Z,28.67
2022-08-30T16:04:51.624Z,28.58
2022-08-30T16:07:27.692Z,28.55
2022-08-30T16:10:02.728Z,28.61
2022-08-30T16:12:39.072Z,28.43
2022-08-30T16:15:14.924Z,28.15
2022-08-30T16:17:49.601Z,28.03
2022-08-30T16:20:24.798Z,27.96
2022-08-30T16:23:00.152Z,27.87
2022-08-30T16:25:39.961Z,27.80
2022-08-30T16:28:17.310Z,27.62
2022-08-30T16:30:52.637Z,27.47
2022-08-30T16:33:27.931Z,27.45
2022-08-30T16:36:02.679Z,27.34
2022-08-30T16:38:37.371Z,27.31
2022-08-30T16:41:18.971Z,27.18
2022-08-30T16:43:57.560Z,27.16
2022-08-30T16:46:33.360Z,27.13
2022-08-30T16:49:08.765Z,27.04
2022-08-30T16:51:44.740Z,26.98
2022-08-30T16:54:19.101Z,27.12
2022-08-30T16:56:55.675Z,26.96
2022-08-30T16:59:31.617Z,27.01
2022-08-30T17:02:06.541Z,26.80
2022-08-30T17:04:42.673Z,26.76
2022-08-30T17:07:21.498Z,26.81
2022-08-30T17:09:57.700Z,26.52
2022-08-30T17:12:33.075Z,26.47
2022-08-30T17:15:11.042Z,26.40
2022-08-30T17:17:45.962Z,26.33
2022-08-30T17:20:20.661Z,26.29
2022-08-30T17:22:55.537Z,26.24
2022-08-30T17:25:33.919Z,26.18
2022-08-30T17:28:09.192Z,26.15
2022-08-30T17:30:45.760Z,26.13
2022-08-30T17:33:20.460Z,26.05
2022-08-30T17:35:56.469Z,25.93
2022-08-30T17:38:31.424Z,25.83
2022-08-30T17:41:08.545Z,25.82
2022-08-30T17:43:43.373Z,25.78
2022-08-30T17:46:21.131Z,25.75
2022-08-30T17:49:01.032Z,25.63
2022-08-30T17:51:37.238Z,25.52
2022-08-30T17:54:14.615Z,25.45
2022-08-30T17:56:49.636Z,25.41
2022-08-30T17:59:29.322Z,25.38
2022-08-30T18:02:11.239Z,25.21
2022-08-30T18:04:46.458Z,25.22
2022-08-30T18:07:22.049Z,25.04
2022-08-30T18:09:57.188Z,25.08
2022-08-30T18:12:33.884Z,25.13
2022-08-30T18:15:12.244Z,25.05
2022-08-30T18:17:49.435Z,24.95
2022-08-30T18:20:26.372Z,24.89
2022-08-30T18:23:01.422Z,24.81
2022-08-30T18:25:35.944Z,24.75
2022-08-30T18:28:12.404Z,24.68
2022-08-30T18:30:47.519Z,24.60
2022-08-30T18:33:24.001Z,24.53
2022-08-30T18:35:59.687Z,24.65
2022-08-30T18:38:35.736Z,24.45
2022-08-30T18:41:14.352Z,24.27
2022-08-30T18:43:54.967Z,24.25
2022-08-30T18:47:31.880Z,24.07
2022-08-30T18:49:38.752Z,24.14
2022-08-30T18:52:14.984Z,23.92
2022-08-30T18:54:52.593Z,23.68
2022-08-30T18:57:27.910Z,23.48
2022-08-30T19:00:03.828Z,23.41
2022-08-30T19:02:39.488Z,23.35
2022-08-30T19:05:22.726Z,23.31
2022-08-30T19:07:58.598Z,23.26
2022-08-30T19:10:33.558Z,23.11
2022-08-30T19:13:07.956Z,23.03
2022-08-30T19:15:42.821Z,22.83
2022-08-30T19:18:17.766Z,22.78
2022-08-30T19:20:53.631Z,22.66
2022-08-30T19:23:34.082Z,22.67
2022-08-30T19:26:09.067Z,22.48
2022-08-30T19:28:46.098Z,22.40
2022-08-30T19:31:20.684Z,22.33
2022-08-30T19:33:55.444Z,22.30
2022-08-30T19:36:32.782Z,22.27
2022-08-30T19:39:07.612Z,22.07
2022-08-30T19:41:42.955Z,21.97
2022-08-30T19:44:18.146Z,21.94
2022-08-30T19:46:54.506Z,21.89
2022-08-30T19:49:30.598Z,21.87
2022-08-30T19:52:08.328Z,21.82
2022-08-30T19:54:42.939Z,21.72
2022-08-30T19:57:17.816Z,21.69
2022-08-30T19:59:52.580Z,21.58
2022-08-30T20:02:27.518Z,21.52
2022-08-30T20:05:04.302Z,21.50
2022-08-30T20:07:40.760Z,21.41
2022-08-30T20:10:20.155Z,21.31
2022-08-30T20:12:54.491Z,21.22
2022-08-30T20:15:29.015Z,21.05
2022-08-30T20:18:06.249Z,20.93
2022-08-30T20:20:50.225Z,20.88
2022-08-30T20:23:26.798Z,20.86
2022-08-30T20:26:02.334Z,20.81
2022-08-30T20:28:37.254Z,20.75
2022-08-30T20:31:12.470Z,20.79
2022-08-30T20:33:46.903Z,20.67
2022-08-30T20:36:21.305Z,20.60
2022-08-30T20:38:56.948Z,20.63
2022-08-30T20:41:31.694Z,20.58
2022-08-30T20:44:06.263Z,20.49
2022-08-30T20:46:47.390Z,20.38
2022-08-30T20:49:21.869Z,20.37
2022-08-30T20:51:56.645Z,20.42
2022-08-30T20:54:32.686Z,20.39
2022-08-30T20:57:07.869Z,20.35
2022-08-30T20:59:42.699Z,20.31
2022-08-30T21:02:18.041Z,20.34
2022-08-30T21:04:52.538Z,20.39
2022-08-30T21:07:26.937Z,20.28
2022-08-30T21:10:03.372Z,20.29
2022-08-30T21:12:37.818Z,20.31
2022-08-30T21:15:36.473Z,20.35
2022-08-30T21:18:08.870Z,20.35
2022-08-30T21:20:43.764Z,20.38
2022-08-30T21:23:18.177Z,20.32
2022-08-30T21:25:54.079Z,20.28
2022-08-30T21:28:28.878Z,20.21
2022-08-30T21:31:08.923Z,20.06
2022-08-30T21:33:43.638Z,20.05
2022-08-30T21:36:35.957Z,20.08
2022-08-30T21:39:10.985Z,20.06
2022-08-30T21:41:47.031Z,20.10
2022-08-30T21:44:24.399Z,19.95
2022-08-30T21:46:59.170Z,19.87
2022-08-30T21:49:33.864Z,19.78
2022-08-30T21:52:08.341Z,19.65
2022-08-30T21:54:42.561Z,19.74
2022-08-30T21:57:18.782Z,19.57
2022-08-30T21:59:53.403Z,19.68
2022-08-30T22:02:29.093Z,19.58
2022-08-30T22:05:03.533Z,19.58
2022-08-30T22:07:37.885Z,19.67
2022-08-30T22:10:14.834Z,19.66
2022-08-30T22:12:50.882Z,19.56
2022-08-30T22:15:26.955Z,19.44
2022-08-30T22:18:02.150Z,19.50
2022-08-30T22:20:37.049Z,19.52
2022-08-30T22:23:12.088Z,19.59
2022-08-30T22:25:51.841Z,19.60
2022-08-30T22:28:27.864Z,19.62
2022-08-30T22:31:04.317Z,19.66
2022-08-30T22:33:39.511Z,19.72
2022-08-30T22:36:19.041Z,19.99
2022-08-30T22:38:55.631Z,19.95
2022-08-30T22:41:34.971Z,19.85
2022-08-30T22:44:10.787Z,19.76
2022-08-30T22:46:45.356Z,19.78
2022-08-30T22:49:19.868Z,19.83
2022-08-30T22:51:54.191Z,19.97
2022-08-30T22:54:29.226Z,20.02
2022-08-30T22:57:04.645Z,20.01
2022-08-30T22:59:40.883Z,20.01
2022-08-30T23:02:15.339Z,20.01
2022-08-30T23:04:50.205Z,20.09
2022-08-30T23:07:24.808Z,20.03
2022-08-30T23:09:59.543Z,20.10
2022-08-30T23:12:37.124Z,20.09
2022-08-30T23:15:16.513Z,19.97
2022-08-30T23:17:51.190Z,20.03
2022-08-30T23:20:25.924Z,20.12
2022-08-30T23:22:58.933Z,20.07
2022-08-30T23:25:52.437Z,20.14
2022-08-30T23:28:44.235Z,20.12
2022-08-30T23:31:37.239Z,20.13
2022-08-30T23:34:28.445Z,20.20
2022-08-30T23:37:20.186Z,20.15
2022-08-30T23:40:12.080Z,20.14
2022-08-30T23:43:05.880Z,20.10
2022-08-30T23:45:57.356Z,20.10
2022-08-30T23:48:52.131Z,20.12
2022-08-30T23:51:44.148Z,20.13
2022-08-30T23:54:35.422Z,20.10
2022-08-30T23:57:27.022Z,19.96
